Time;durP1;ratioP1;P1;durP2;ratioP2;P2;SDS_P1;SDS_P2;PMS_P1;PMS_P2;Temp;Humidity;BMP_temperature;BMP_pressure;BME280_temperature;BME280_humidity;BME280_pressure;Samples;Min_cycle;Max_cycle;Signal;HPM_P1;HPM_P2
2021/07/06 00:02:19;;;;;;;4.70;3.47;;;;;;;17.19;80.48;100770.09;10096265;28;20051;-83
2021/07/06 00:07:18;;;;;;;4.50;3.53;;;;;;;17.18;80.43;100771.25;10110314;28;20062;-83
2021/07/06 00:12:15;;;;;;;5.40;3.58;;;;;;;17.18;80.41;100762.19;10099531;28;20074;-83
2021/07/06 00:17:12;;;;;;;5.22;3.30;;;;;;;17.15;80.75;100757.34;10095501;28;20566;-82
2021/07/06 00:22:09;;;;;;;4.95;3.03;;;;;;;17.15;80.84;100749.88;10098034;28;20051;-84
2021/07/06 00:27:06;;;;;;;5.10;3.00;;;;;;;17.16;80.64;100745.16;10098354;28;20047;-83
2021/07/06 00:32:03;;;;;;;4.72;3.13;;;;;;;17.18;80.63;100745.59;10098314;28;20388;-82
2021/07/06 00:37:00;;;;;;;5.50;3.05;;;;;;;17.17;80.69;100741.22;10100524;28;20130;-80
2021/07/06 00:41:56;;;;;;;7.25;3.05;;;;;;;17.20;80.44;100746.03;10112114;28;20047;-80
2021/07/06 00:46:53;;;;;;;4.30;2.60;;;;;;;17.22;80.46;100743.72;10095965;28;20051;-83
2021/07/06 00:51:50;;;;;;;4.68;2.92;;;;;;;17.15;80.79;100738.00;10098896;28;20102;-83
2021/07/06 00:56:47;;;;;;;4.00;2.60;;;;;;;17.20;80.71;100732.22;10091684;28;20073;-83
2021/07/06 01:01:44;;;;;;;5.68;2.70;;;;;;;17.24;80.68;100730.31;10091508;28;20043;-81
2021/07/06 01:06:40;;;;;;;3.60;2.17;;;;;;;17.20;80.78;100729.47;10090870;28;20054;-81
2021/07/06 01:11:37;;;;;;;5.57;2.25;;;;;;;17.27;80.80;100713.03;10089673;28;20125;-82
2021/07/06 01:16:34;;;;;;;3.38;2.33;;;;;;;17.15;81.11;100715.91;10109011;28;22076;-81
2021/07/06 01:21:31;;;;;;;4.13;2.38;;;;;;;17.29;80.99;100705.19;10088451;28;20051;-81
2021/07/06 01:26:35;;;;;;;5.70;2.20;;;;;;;17.23;80.85;100701.09;10087970;28;20422;-81
2021/07/06 01:31:31;;;;;;;4.45;2.75;;;;;;;17.23;80.86;100695.56;10093384;28;20061;-84
2021/07/06 01:36:28;;;;;;;5.60;2.20;;;;;;;17.22;80.93;100693.97;10090622;28;20134;-84
2021/07/06 01:41:25;;;;;;;3.80;2.25;;;;;;;17.21;81.20;100695.13;10106953;28;20426;-81
2021/07/06 01:46:21;;;;;;;6.03;2.25;;;;;;;17.23;81.16;100679.00;10096974;28;20062;-83
2021/07/06 01:51:18;;;;;;;5.55;2.30;;;;;;;17.27;80.88;100679.88;10095416;28;20084;-81
2021/07/06 01:56:15;;;;;;;7.75;2.60;;;;;;;17.30;81.24;100672.81;10093800;28;20054;-81
2021/07/06 02:01:12;;;;;;;5.32;1.92;;;;;;;17.29;81.22;100666.50;10108161;28;20484;-81
2021/07/06 02:06:09;;;;;;;5.60;2.22;;;;;;;17.29;81.59;100665.66;10101551;28;20047;-83
2021/07/06 02:11:06;;;;;;;3.80;1.90;;;;;;;17.30;81.48;100662.56;10098171;28;20042;-81
2021/07/06 02:16:03;;;;;;;3.83;2.08;;;;;;;17.31;81.32;100664.13;10094954;28;20043;-81
2021/07/06 02:21:00;;;;;;;3.70;1.90;;;;;;;17.33;81.01;100656.28;10104457;28;20038;-82
2021/07/06 02:26:06;;;;;;;6.03;2.40;;;;;;;17.31;80.98;100647.56;10102590;28;20476;-82
2021/07/06 02:31:03;;;;;;;4.82;2.33;;;;;;;17.30;80.85;100657.03;10090057;28;20047;-84
2021/07/06 02:36:07;;;;;;;4.53;2.17;;;;;;;17.30;80.90;100650.72;10098979;28;20407;-81
2021/07/06 02:41:03;;;;;;;4.55;2.60;;;;;;;17.32;80.87;100651.94;10096217;28;20410;-82
2021/07/06 02:46:00;;;;;;;5.03;2.20;;;;;;;17.20;81.35;100639.09;10111520;28;20046;-81
2021/07/06 02:50:57;;;;;;;4.07;2.17;;;;;;;17.22;81.43;100639.53;10096973;28;20047;-83
2021/07/06 02:55:53;;;;;;;3.85;2.08;;;;;;;17.28;81.51;100631.72;10103141;28;20057;-83
2021/07/06 03:00:50;;;;;;;4.40;2.50;;;;;;;17.30;81.68;100626.63;10110615;28;20479;-83
2021/07/06 03:05:47;;;;;;;4.65;1.90;;;;;;;17.35;81.51;100626.31;10100408;28;20134;-83
2021/07/06 03:10:43;;;;;;;4.63;2.10;;;;;;;17.37;81.28;100614.91;10093631;28;20054;-83
2021/07/06 03:15:40;;;;;;;5.93;2.10;;;;;;;17.36;81.24;100613.31;10099051;28;20494;-80
2021/07/06 03:20:38;;;;;;;4.82;2.17;;;;;;;17.38;81.23;100614.56;10087542;28;20130;-81
2021/07/06 03:25:35;;;;;;;4.25;1.90;;;;;;;17.41;81.29;100608.28;10087740;28;20077;-81
2021/07/06 03:30:34;;;;;;;4.93;1.98;;;;;;;17.40;81.40;100617.72;10100991;28;20047;-81
2021/07/06 03:35:34;;;;;;;3.33;1.85;;;;;;;17.43;81.53;100605.97;10097079;28;20491;-80
2021/07/06 03:40:33;;;;;;;5.47;2.25;;;;;;;17.41;81.11;100597.25;10098570;28;20047;-79
2021/07/06 03:45:31;;;;;;;5.03;2.13;;;;;;;17.32;81.52;100577.31;10112736;28;20093;-80
2021/07/06 03:50:28;;;;;;;3.85;2.10;;;;;;;17.31;81.42;100572.94;10086861;28;20051;-76
2021/07/06 03:55:25;;;;;;;4.28;2.50;;;;;;;17.31;81.65;100580.44;10092102;28;20058;-77
2021/07/06 04:00:27;;;;;;;5.97;2.47;;;;;;;17.28;81.55;100587.50;10073482;28;20058;-78
2021/07/06 04:05:24;;;;;;;4.13;2.22;;;;;;;17.33;81.90;100587.22;10082181;28;20472;-78
2021/07/06 04:10:21;;;;;;;6.40;2.80;;;;;;;17.39;82.02;100588.50;10102759;28;20400;-78
2021/07/06 04:15:19;;;;;;;6.75;2.42;;;;;;;17.46;82.15;100583.09;10086650;28;20051;-77
2021/07/06 04:20:17;;;;;;;4.00;2.30;;;;;;;17.52;82.17;100580.84;10092505;28;20467;-78
2021/07/06 04:25:14;;;;;;;6.95;2.15;;;;;;;17.61;81.91;100580.59;10086831;28;20111;-77
2021/07/06 04:30:12;;;;;;;4.15;2.20;;;;;;;17.68;81.15;100580.69;10088843;28;20051;-75
2021/07/06 04:35:10;;;;;;;4.70;2.85;;;;;;;17.77;80.33;100574.94;10088086;28;20053;-76
2021/07/06 04:40:07;;;;;;;4.32;2.45;;;;;;;17.80;79.67;100566.72;10079404;28;20487;-79
2021/07/06 04:45:05;;;;;;;3.95;2.10;;;;;;;17.84;79.68;100553.75;10085492;28;20055;-79
2021/07/06 04:50:04;;;;;;;5.80;2.45;;;;;;;17.86;79.56;100551.41;10082224;28;20055;-82
2021/07/06 04:55:03;;;;;;;4.03;2.45;;;;;;;17.94;79.10;100557.88;10077074;28;20051;-79
2021/07/06 04:59:59;;;;;;;4.40;2.60;;;;;;;17.93;78.86;100556.25;10072379;28;20051;-81
2021/07/06 05:04:56;;;;;;;4.78;2.20;;;;;;;17.96;78.81;100538.94;10074384;28;20473;-80
2021/07/06 05:09:56;;;;;;;4.22;2.38;;;;;;;18.01;78.93;100551.63;10078974;28;20049;-80
2021/07/06 05:14:53;;;;;;;6.68;2.10;;;;;;;18.05;78.94;100552.47;10074918;28;20078;-80
2021/07/06 05:19:49;;;;;;;3.80;2.50;;;;;;;18.09;78.40;100547.78;10074637;28;20041;-80
2021/07/06 05:24:46;;;;;;;6.00;2.42;;;;;;;18.11;78.63;100561.28;10083456;28;20491;-80
2021/07/06 05:29:43;;;;;;;3.90;2.38;;;;;;;18.09;79.13;100579.03;10089844;28;20398;-79
2021/07/06 05:34:40;;;;;;;4.43;2.38;;;;;;;18.21;78.88;100599.34;10088295;28;20049;-80
2021/07/06 05:39:37;;;;;;;4.90;2.42;;;;;;;18.27;78.94;100581.25;10091965;28;20038;-80
2021/07/06 05:44:34;;;;;;;6.75;2.42;;;;;;;18.34;78.70;100588.88;10091510;28;20074;-81
2021/07/06 05:49:30;;;;;;;8.00;2.55;;;;;;;18.42;78.99;100582.25;10088168;28;20504;-80
2021/07/06 05:54:31;;;;;;;6.90;2.55;;;;;;;18.45;78.77;100589.81;10084822;28;20447;-81
2021/07/06 05:59:27;;;;;;;6.57;2.60;;;;;;;18.53;78.63;100583.19;10092689;28;20051;-79
2021/07/06 06:04:26;;;;;;;5.82;2.47;;;;;;;18.63;78.73;100582.53;10089343;28;20047;-80
2021/07/06 06:09:23;;;;;;;5.28;2.05;;;;;;;18.68;78.37;100567.56;10099009;28;20073;-80
2021/07/06 06:14:19;;;;;;;5.32;1.95;;;;;;;18.64;78.43;100548.16;10078099;28;20043;-80
2021/07/06 06:19:16;;;;;;;6.50;2.28;;;;;;;18.67;78.48;100544.63;10087375;28;20633;-80
2021/07/06 06:24:13;;;;;;;6.32;2.42;;;;;;;18.69;78.67;100542.25;10094139;28;20043;-80
2021/07/06 06:29:10;;;;;;;6.35;2.38;;;;;;;18.76;78.92;100554.63;10094116;28;20470;-80
2021/07/06 06:34:07;;;;;;;4.85;2.20;;;;;;;18.93;78.63;100556.81;10091672;28;20043;-76
2021/07/06 06:39:04;;;;;;;5.25;1.92;;;;;;;19.16;78.32;100536.47;10091570;28;20045;-77
2021/07/06 06:44:01;;;;;;;4.88;1.60;;;;;;;19.32;77.57;100528.72;10098065;28;20070;-76
2021/07/06 06:49:03;;;;;;;8.45;1.52;;;;;;;19.41;76.81;100515.31;10093530;28;20486;-77
2021/07/06 06:54:01;;;;;;;4.97;1.83;;;;;;;19.51;76.66;100524.91;10099913;28;20047;-76
2021/07/06 06:58:58;;;;;;;4.00;1.40;;;;;;;19.57;75.86;100525.38;10086648;28;20038;-76
2021/07/06 07:03:55;;;;;;;3.22;1.45;;;;;;;19.71;75.01;100533.81;10097398;28;20054;-75
2021/07/06 07:08:51;;;;;;;2.97;1.13;;;;;;;19.78;74.37;100536.66;10095815;28;20042;-75
2021/07/06 07:13:48;;;;;;;2.90;1.35;;;;;;;19.89;74.27;100531.97;10112457;28;20767;-77
2021/07/06 07:18:45;;;;;;;4.15;1.48;;;;;;;20.03;74.54;100544.34;10097991;28;20054;-76
2021/07/06 07:23:42;;;;;;;5.55;1.40;;;;;;;20.09;74.02;100538.03;10107275;28;20049;-77
2021/07/06 07:28:39;;;;;;;4.63;0.95;;;;;;;20.17;72.91;100544.44;10096681;28;20130;-79
2021/07/06 07:33:36;;;;;;;3.53;1.15;;;;;;;20.16;72.68;100553.94;10085615;28;20046;-76
2021/07/06 07:38:33;;;;;;;4.40;0.90;;;;;;;20.03;72.43;100545.16;10096039;28;20055;-77
2021/07/06 07:43:29;;;;;;;3.63;1.10;;;;;;;20.05;73.04;100542.78;10098944;28;20491;-76
2021/07/06 07:48:26;;;;;;;1.77;0.98;;;;;;;20.23;72.45;100548.44;10112474;28;20138;-78
2021/07/06 07:53:22;;;;;;;3.90;1.38;;;;;;;20.34;72.07;100540.97;10087948;28;20526;-76
2021/07/06 07:58:19;;;;;;;3.30;1.00;;;;;;;20.52;71.86;100543.03;10085617;28;20542;-75
2021/07/06 08:03:16;;;;;;;2.55;1.15;;;;;;;20.72;71.60;100533.22;10093988;28;20054;-76
2021/07/06 08:08:12;;;;;;;3.17;1.00;;;;;;;20.89;69.54;100522.56;10090216;28;20053;-75
2021/07/06 08:13:10;;;;;;;2.35;1.08;;;;;;;21.06;68.67;100516.25;10072119;28;20060;-76
2021/07/06 08:18:07;;;;;;;5.35;1.25;;;;;;;21.23;69.48;100504.38;10075782;28;20735;-76
2021/07/06 08:23:03;;;;;;;3.03;0.90;;;;;;;21.34;67.83;100503.56;10089506;28;20051;-79
2021/07/06 08:28:00;;;;;;;3.35;0.90;;;;;;;21.39;66.82;100501.16;10096317;28;20054;-75
2021/07/06 08:32:57;;;;;;;1.45;0.82;;;;;;;21.60;65.50;100500.41;10087427;28;20121;-75
2021/07/06 08:37:53;;;;;;;6.50;1.55;;;;;;;21.73;65.37;100492.44;10091166;28;20419;-75
2021/07/06 08:42:53;;;;;;;2.88;1.20;;;;;;;21.89;64.94;100500.38;10093501;28;20046;-75
2021/07/06 08:47:53;;;;;;;1.50;0.80;;;;;;;22.12;65.33;100496.31;10089350;28;20106;-75
2021/07/06 08:52:50;;;;;;;7.85;1.00;;;;;;;22.51;63.98;100512.13;10096402;28;20055;-75
2021/07/06 08:57:48;;;;;;;4.72;1.23;;;;;;;22.57;64.50;100516.88;10095530;28;20047;-79
2021/07/06 09:02:55;;;;;;;1.98;0.90;;;;;;;22.85;65.65;100521.53;10097807;28;20046;-79
2021/07/06 09:07:52;;;;;;;2.40;1.08;;;;;;;22.96;65.01;100531.84;10088572;28;20515;-80
2021/07/06 09:12:50;;;;;;;4.13;1.40;;;;;;;22.77;64.01;100533.91;10089490;28;20395;-80
2021/07/06 09:18:06;;;;;;;3.45;1.10;;;;;;;22.53;66.78;100543.16;10089701;28;20059;-81
2021/07/06 09:23:21;;;;;;;4.63;1.20;;;;;;;22.06;69.30;100544.06;10082820;28;20047;-78
2021/07/06 09:28:24;;;;;;;3.38;1.30;;;;;;;21.89;70.93;100544.91;10080674;28;20061;-75
2021/07/06 09:33:28;;;;;;;2.85;1.20;;;;;;;21.91;71.44;100531.38;10084557;28;20125;-76
2021/07/06 09:38:25;;;;;;;2.33;1.13;;;;;;;22.29;71.60;100531.72;10070700;28;20066;-77
2021/07/06 09:43:26;;;;;;;2.90;1.30;;;;;;;22.78;68.48;100521.56;10078384;28;20062;-78
2021/07/06 09:48:23;;;;;;;3.97;1.30;;;;;;;23.15;67.16;100513.81;10082371;28;20050;-77
2021/07/06 09:53:30;;;;;;;4.22;1.20;;;;;;;23.29;62.33;100511.69;10102083;28;20050;-77
2021/07/06 09:58:27;;;;;;;2.75;0.90;;;;;;;23.75;61.15;100506.19;10094950;28;20046;-77
2021/07/06 10:03:24;;;;;;;4.47;1.30;;;;;;;24.11;59.84;100513.00;10086059;28;20098;-77
2021/07/06 10:08:20;;;;;;;6.65;1.10;;;;;;;24.43;60.01;100509.00;10089857;28;20051;-78
2021/07/06 10:13:17;;;;;;;4.80;1.33;;;;;;;24.47;57.06;100493.03;10089519;28;20054;-78
2021/07/06 10:18:14;;;;;;;4.43;0.98;;;;;;;24.75;55.46;100502.25;10086494;28;20042;-78
2021/07/06 10:23:12;;;;;;;3.72;0.90;;;;;;;24.56;54.51;100529.63;10101935;28;20055;-78
2021/07/06 10:28:15;;;;;;;3.53;0.85;;;;;;;24.41;55.17;100528.19;10083380;28;20135;-78
2021/07/06 10:33:29;;;;;;;4.43;1.10;;;;;;;24.13;56.07;100518.94;10102242;28;20054;-78
2021/07/06 10:38:29;;;;;;;3.20;0.80;;;;;;;23.96;57.15;100514.34;10078565;28;20486;-78
2021/07/06 10:43:42;;;;;;;3.35;0.98;;;;;;;23.73;57.19;100521.28;10091372;28;20062;-79
2021/07/06 10:48:43;;;;;;;5.05;1.13;;;;;;;23.56;56.81;100525.06;10086188;28;20047;-78
2021/07/06 10:54:04;;;;;;;3.20;0.80;;;;;;;23.49;55.15;100525.13;10078981;28;20058;-78
2021/07/06 10:59:03;;;;;;;4.60;1.40;;;;;;;23.42;55.96;100525.19;10094537;28;20050;-78
2021/07/06 11:03:59;;;;;;;5.80;1.05;;;;;;;23.40;55.67;100539.53;10087004;28;20046;-77
2021/07/06 11:08:56;;;;;;;5.72;0.98;;;;;;;23.34;55.67;100557.09;10100781;28;20047;-78
2021/07/06 11:14:17;;;;;;;5.90;1.23;;;;;;;23.26;56.64;100518.09;10098857;28;20766;-78
2021/07/06 11:19:36;;;;;;;3.03;1.00;;;;;;;23.26;57.08;100534.06;10089212;28;20096;-77
2021/07/06 11:24:48;;;;;;;2.83;0.80;;;;;;;23.30;57.73;100546.78;10091890;28;20506;-78
2021/07/06 11:29:45;;;;;;;3.70;0.90;;;;;;;23.33;57.91;100539.59;10098765;28;20491;-77
2021/07/06 11:34:44;;;;;;;2.40;0.80;;;;;;;23.35;57.44;100541.94;10100682;28;20046;-78
2021/07/06 11:39:41;;;;;;;4.57;1.23;;;;;;;23.35;58.53;100525.19;10093844;28;20039;-75
2021/07/06 11:44:46;;;;;;;2.95;0.90;;;;;;;23.23;58.23;100518.94;10077466;28;20051;-76
2021/07/06 11:49:43;;;;;;;4.28;1.02;;;;;;;23.13;59.49;100530.94;10100583;28;20047;-77
2021/07/06 11:54:43;;;;;;;4.57;1.10;;;;;;;23.02;60.63;100508.72;10093757;28;20406;-76
2021/07/06 11:59:41;;;;;;;5.20;1.10;;;;;;;22.98;59.81;100485.63;10114765;28;20038;-75
2021/07/06 12:04:38;;;;;;;6.22;1.50;;;;;;;22.85;59.85;100493.66;10094677;28;20075;-75
2021/07/06 12:09:36;;;;;;;2.97;1.00;;;;;;;22.79;59.66;100523.16;10090387;28;20038;-76
2021/07/06 12:14:34;;;;;;;4.05;1.23;;;;;;;22.65;60.11;100512.06;10108270;28;20049;-76
2021/07/06 12:19:31;;;;;;;5.82;0.90;;;;;;;22.56;60.68;100492.22;10088566;28;20496;-78
2021/07/06 12:24:32;;;;;;;4.05;1.02;;;;;;;22.45;60.14;100426.22;10111969;28;20050;-77
2021/07/06 12:29:34;;;;;;;6.65;1.20;;;;;;;22.42;62.61;100357.41;10098502;28;20074;-78
2021/07/06 12:34:38;;;;;;;3.00;1.05;;;;;;;22.38;61.29;100392.03;10112460;28;20096;-77
2021/07/06 12:39:37;;;;;;;3.15;0.95;;;;;;;22.34;61.18;100425.47;10091267;28;20047;-78
2021/07/06 12:44:46;;;;;;;2.65;0.90;;;;;;;22.22;60.47;100417.56;10090737;28;20490;-77
2021/07/06 12:49:50;;;;;;;4.03;0.80;;;;;;;22.06;60.23;100359.53;10073130;28;20066;-78
2021/07/06 12:54:47;;;;;;;2.60;0.80;;;;;;;22.09;60.33;100408.84;10074796;28;20051;-78
2021/07/06 12:59:44;;;;;;;2.05;0.70;;;;;;;22.06;60.59;100493.97;10083742;28;20043;-75
2021/07/06 13:04:52;;;;;;;6.38;0.90;;;;;;;22.02;60.50;100501.53;10080920;28;20050;-75
2021/07/06 13:10:08;;;;;;;2.22;0.57;;;;;;;21.98;60.06;100497.97;10088860;28;20049;-76
2021/07/06 13:15:07;;;;;;;3.67;0.65;;;;;;;21.86;59.83;100526.19;10078789;28;20051;-75
2021/07/06 13:20:14;;;;;;;4.90;0.70;;;;;;;21.81;59.88;100532.19;10086990;28;20036;-75
2021/07/06 13:25:12;;;;;;;2.53;0.50;;;;;;;21.73;59.96;100564.00;10087287;28;20483;-76
2021/07/06 13:30:20;;;;;;;1.90;0.70;;;;;;;21.78;60.08;100560.81;10095487;28;21195;-75
2021/07/06 13:35:17;;;;;;;1.92;0.75;;;;;;;22.05;60.34;100548.06;10097686;28;20380;-75
2021/07/06 13:40:16;;;;;;;2.65;0.90;;;;;;;22.58;59.79;100559.47;10098313;28;20051;-76
2021/07/06 13:45:15;;;;;;;2.15;0.40;;;;;;;22.90;58.75;100557.31;10087743;28;20043;-76
2021/07/06 13:50:15;;;;;;;2.47;0.63;;;;;;;23.06;57.69;100565.25;10089474;28;20057;-76
2021/07/06 13:55:25;;;;;;;2.72;0.50;;;;;;;23.33;55.68;100569.47;10083878;28;20043;-80
2021/07/06 14:00:24;;;;;;;1.42;0.50;;;;;;;23.39;57.88;100571.41;10081510;28;20080;-75
2021/07/06 14:05:21;;;;;;;2.78;0.50;;;;;;;23.44;57.30;100572.97;10091838;28;20468;-76
2021/07/06 14:10:18;;;;;;;2.72;0.80;;;;;;;23.60;58.52;100569.66;10087369;28;20134;-77
2021/07/06 14:15:15;;;;;;;2.70;0.50;;;;;;;23.73;58.91;100557.59;10097066;28;20047;-77
2021/07/06 14:20:13;;;;;;;1.95;0.80;;;;;;;23.78;58.18;100586.28;10099352;28;20046;-76
2021/07/06 14:25:11;;;;;;;4.15;1.10;;;;;;;24.49;58.43;100591.22;10106105;28;20399;-74
2021/07/06 14:30:08;;;;;;;4.25;0.80;;;;;;;24.85;57.44;100574.00;10087567;28;20436;-74
2021/07/06 14:35:12;;;;;;;2.88;1.00;;;;;;;24.67;57.88;100571.44;10080305;28;20047;-74
2021/07/06 14:40:10;;;;;;;1.92;0.90;;;;;;;24.33;58.75;100577.00;10090455;28;20443;-75
2021/07/06 14:45:07;;;;;;;3.90;1.00;;;;;;;24.40;59.19;100588.09;10086429;28;20070;-74
2021/07/06 14:50:04;;;;;;;2.05;0.70;;;;;;;24.49;59.35;100579.25;10099332;28;20126;-74
2021/07/06 14:55:01;;;;;;;3.25;0.93;;;;;;;24.40;59.28;100579.72;10119160;28;20061;-74
2021/07/06 14:59:58;;;;;;;2.10;1.00;;;;;;;24.33;59.72;100565.81;10093158;28;20046;-74
2021/07/06 15:04:54;;;;;;;4.47;0.70;;;;;;;24.28;59.62;100560.69;10102004;28;20560;-74
2021/07/06 15:09:51;;;;;;;2.15;0.60;;;;;;;24.51;58.97;100557.28;10100054;28;20046;-74
2021/07/06 15:14:49;;;;;;;2.00;0.70;;;;;;;24.52;58.55;100545.66;10099243;28;20065;-76
2021/07/06 15:19:45;;;;;;;2.30;0.80;;;;;;;24.64;57.17;100557.50;10109579;28;20043;-74
2021/07/06 15:24:42;;;;;;;2.72;0.60;;;;;;;24.72;56.71;100564.59;10110234;28;20407;-74
2021/07/06 15:29:40;;;;;;;1.38;0.60;;;;;;;24.96;54.66;100563.47;10102132;28;20039;-74
2021/07/06 15:34:37;;;;;;;5.47;1.10;;;;;;;25.21;53.59;100559.56;10118100;28;20162;-74
2021/07/06 15:39:33;;;;;;;3.33;0.60;;;;;;;25.19;52.92;100565.56;10102863;28;20038;-74
2021/07/06 15:44:30;;;;;;;2.38;0.70;;;;;;;25.06;52.36;100561.72;10096024;28;20047;-74
2021/07/06 15:49:27;;;;;;;4.43;1.00;;;;;;;24.99;52.54;100568.22;10093200;28;20191;-75
2021/07/06 15:54:23;;;;;;;4.72;0.80;;;;;;;24.80;52.20;100560.47;10093224;28;20058;-74
2021/07/06 15:59:20;;;;;;;3.63;1.00;;;;;;;24.39;53.72;100569.72;10097357;28;20054;-74
2021/07/06 16:04:17;;;;;;;1.70;0.63;;;;;;;24.36;54.87;100576.16;10095770;28;20448;-74
2021/07/06 16:09:14;;;;;;;2.10;0.75;;;;;;;24.20;56.14;100578.72;10116383;28;20491;-74
2021/07/06 16:14:10;;;;;;;2.65;0.80;;;;;;;24.01;56.85;100572.53;10082542;28;20039;-74
2021/07/06 16:19:07;;;;;;;2.15;0.77;;;;;;;23.77;56.95;100591.09;10095641;28;20042;-77
2021/07/06 16:24:04;;;;;;;3.22;0.73;;;;;;;23.76;56.26;100577.53;10090664;28;20049;-74
2021/07/06 16:29:01;;;;;;;3.42;0.93;;;;;;;23.64;55.15;100576.81;10095813;28;20049;-74
2021/07/06 16:33:57;;;;;;;2.60;0.60;;;;;;;23.57;54.60;100576.84;10093746;28;20417;-73
2021/07/06 16:38:54;;;;;;;3.97;1.00;;;;;;;23.46;54.60;100576.97;10093467;28;20054;-74
2021/07/06 16:43:51;;;;;;;2.92;0.70;;;;;;;23.53;54.68;100576.09;10089317;28;20047;-74
2021/07/06 16:48:48;;;;;;;3.28;1.05;;;;;;;24.17;53.90;100569.19;10082826;28;20055;-75
2021/07/06 18:07:24;;;;;;;0.95;0.50;;;;;;;24.68;50.91;100636.53;10091772;28;20058;-74
2021/07/06 18:12:20;;;;;;;1.63;0.60;;;;;;;24.17;51.29;100638.22;10072478;28;20126;-74
2021/07/06 18:17:17;;;;;;;2.90;0.60;;;;;;;23.98;52.11;100640.38;10093569;28;20102;-74
2021/07/06 18:22:14;;;;;;;2.08;0.70;;;;;;;23.70;52.30;100642.16;10087175;28;20050;-75
2021/07/06 18:27:11;;;;;;;2.63;0.60;;;;;;;23.64;53.11;100649.38;10083721;28;20058;-76
2021/07/06 18:44:41;;;;;;;3.50;0.80;;;;;;;23.18;52.80;100683.91;10098747;28;20574;-75
2021/07/06 18:49:39;;;;;;;5.35;0.90;;;;;;;23.05;52.95;100680.00;10100238;28;20069;-75
2021/07/06 18:54:36;;;;;;;2.88;0.90;;;;;;;23.00;53.63;100677.59;10095117;28;20054;-76
2021/07/06 18:59:33;;;;;;;2.83;0.80;;;;;;;22.97;54.07;100670.00;10097545;28;20062;-74
2021/07/06 19:04:30;;;;;;;8.80;0.77;;;;;;;22.90;54.59;100679.97;10105821;28;20053;-74
2021/07/06 19:09:27;;;;;;;2.78;0.73;;;;;;;22.89;55.32;100709.06;10091708;28;20054;-76
2021/07/06 19:14:27;;;;;;;5.53;0.77;;;;;;;22.71;53.17;100713.09;10087043;28;20518;-74
2021/07/06 19:19:24;;;;;;;2.72;0.85;;;;;;;22.63;52.13;100709.53;10074302;28;20495;-75
2021/07/06 19:34:51;;;;;;;4.00;0.73;;;;;;;22.48;50.92;100737.41;10090383;28;20050;-73
2021/07/06 19:39:50;;;;;;;4.05;0.70;;;;;;;22.45;51.04;100757.72;10083205;28;20054;-74
2021/07/06 19:44:47;;;;;;;3.65;0.98;;;;;;;22.42;51.27;100750.16;10072182;28;20136;-75
2021/07/06 19:49:43;;;;;;;3.30;0.90;;;;;;;22.35;51.47;100766.88;10078013;28;20042;-75
2021/07/06 19:54:40;;;;;;;4.20;1.08;;;;;;;22.29;51.65;100776.81;10080209;28;20047;-74
2021/07/06 19:59:37;;;;;;;1.98;0.60;;;;;;;22.25;52.45;100779.56;10068697;28;20047;-74
2021/07/06 20:04:34;;;;;;;3.22;0.82;;;;;;;22.20;51.97;100787.50;10081371;28;20038;-74
2021/07/06 20:09:31;;;;;;;3.50;1.30;;;;;;;22.16;50.19;100792.25;10085021;28;20411;-74
2021/07/06 20:14:29;;;;;;;4.30;0.90;;;;;;;22.09;49.36;100815.31;10062450;28;20055;-75
2021/07/06 20:19:26;;;;;;;5.30;0.98;;;;;;;21.91;48.14;100815.28;10087785;28;20475;-76
2021/07/06 20:24:22;;;;;;;3.28;0.82;;;;;;;21.94;48.37;100814.50;10071901;28;20381;-75
2021/07/06 20:29:20;;;;;;;7.35;1.10;;;;;;;21.90;48.59;100813.69;10080847;28;20058;-75
2021/07/06 20:34:17;;;;;;;4.40;1.48;;;;;;;21.77;48.76;100809.66;10079141;28;20499;-75
2021/07/06 20:39:13;;;;;;;4.47;0.90;;;;;;;21.75;49.13;100814.84;10077854;28;20051;-74
2021/07/06 20:44:10;;;;;;;7.82;1.50;;;;;;;21.72;49.13;100829.53;10107712;28;20252;-76
2021/07/06 20:49:07;;;;;;;2.65;0.82;;;;;;;21.60;49.16;100839.81;10080077;28;20046;-76
2021/07/06 20:54:04;;;;;;;7.68;1.25;;;;;;;21.57;50.28;100840.59;10091487;28;20043;-75
2021/07/06 20:59:00;;;;;;;6.55;1.00;;;;;;;21.51;49.89;100853.28;10088928;28;20043;-74
2021/07/06 21:04:01;;;;;;;10.73;1.02;;;;;;;21.46;50.08;100861.19;10109565;28;20043;-75
2021/07/06 21:09:02;;;;;;;2.72;0.80;;;;;;;21.34;50.50;100865.06;10089161;28;20078;-75
2021/07/06 21:14:08;;;;;;;4.00;0.77;;;;;;;21.32;49.93;100879.34;10088213;28;20450;-75
2021/07/06 21:19:05;;;;;;;4.13;0.73;;;;;;;21.21;49.54;100901.53;10087319;28;20043;-74
2021/07/06 21:24:03;;;;;;;6.20;1.20;;;;;;;21.14;48.85;100917.34;10090416;28;20555;-75
2021/07/06 21:28:59;;;;;;;4.75;0.93;;;;;;;21.08;49.23;100914.16;10085886;28;20423;-76
2021/07/06 21:33:56;;;;;;;4.88;0.85;;;;;;;21.00;49.72;100934.72;10090937;28;20057;-75
2021/07/06 21:38:53;;;;;;;8.32;1.00;;;;;;;20.95;50.29;100938.66;10094400;28;20042;-75
2021/07/06 21:43:53;;;;;;;5.55;0.88;;;;;;;20.94;50.37;100950.16;10091365;28;20718;-79
2021/07/06 21:48:50;;;;;;;8.18;1.20;;;;;;;20.83;50.73;100940.94;10088120;28;20063;-78
2021/07/06 21:53:46;;;;;;;3.88;0.77;;;;;;;20.77;50.08;100960.72;10092758;28;20047;-79
2021/07/06 21:58:43;;;;;;;7.40;1.00;;;;;;;20.65;49.22;100988.75;10079728;28;20049;-79
2021/07/06 22:03:40;;;;;;;7.28;0.98;;;;;;;20.63;49.43;100996.69;10089829;28;20049;-79
2021/07/06 22:08:37;;;;;;;4.40;0.80;;;;;;;20.60;49.38;101001.00;10098302;28;20682;-79
2021/07/06 22:13:33;;;;;;;3.78;0.73;;;;;;;20.49;48.61;101010.38;10100726;28;20046;-79
2021/07/06 22:18:30;;;;;;;5.82;1.15;;;;;;;20.36;48.37;101005.06;10098209;28;20078;-79
2021/07/06 22:23:27;;;;;;;3.63;0.85;;;;;;;20.38;48.70;101027.72;10101903;28;20086;-79
2021/07/06 22:28:24;;;;;;;5.40;0.65;;;;;;;20.32;48.40;101023.66;10101098;28;20419;-78
2021/07/06 22:33:20;;;;;;;11.10;1.60;;;;;;;20.05;48.48;101022.94;10096167;28;20059;-78
2021/07/06 22:38:17;;;;;;;3.80;0.60;;;;;;;20.15;48.43;101043.66;10101612;28;20137;-79
2021/07/06 22:43:14;;;;;;;6.43;0.85;;;;;;;19.82;47.79;101061.81;10102910;28;20046;-80
2021/07/06 22:48:10;;;;;;;8.98;0.95;;;;;;;19.81;48.04;101053.88;10097614;28;20047;-78
2021/07/06 22:53:07;;;;;;;3.38;0.70;;;;;;;19.78;48.26;101052.66;10099158;28;20418;-78
2021/07/06 22:58:04;;;;;;;5.65;0.77;;;;;;;19.69;48.63;101052.09;10094288;28;20046;-78
2021/07/06 23:03:01;;;;;;;5.47;1.08;;;;;;;19.71;48.55;101049.75;10100446;28;20043;-80
2021/07/06 23:07:58;;;;;;;7.78;0.70;;;;;;;19.60;48.94;101070.94;10092565;28;20430;-80
2021/07/06 23:12:54;;;;;;;4.38;0.90;;;;;;;19.55;49.12;101074.81;10093067;28;20479;-82
2021/07/06 23:17:51;;;;;;;4.38;1.95;;;;;;;19.43;49.01;101084.13;10097814;28;20043;-80
2021/07/06 23:22:48;;;;;;;3.42;0.57;;;;;;;19.50;49.26;101064.84;10100789;28;20053;-82
2021/07/06 23:27:44;;;;;;;3.15;0.50;;;;;;;19.51;49.33;101074.75;10099041;28;20057;-83
2021/07/06 23:32:42;;;;;;;3.53;0.80;;;;;;;19.49;49.09;101081.84;10087091;28;20434;-84
2021/07/06 23:37:39;;;;;;;3.63;0.60;;;;;;;19.38;48.89;101087.22;10102617;28;20050;-83
2021/07/06 23:42:36;;;;;;;6.30;0.93;;;;;;;19.36;49.11;101092.31;10102576;28;20475;-83
2021/07/06 23:47:33;;;;;;;4.55;0.70;;;;;;;19.22;49.63;101105.94;10092434;28;20055;-81
2021/07/06 23:52:30;;;;;;;2.67;0.70;;;;;;;19.12;49.94;101113.69;10096821;28;20422;-82
2021/07/06 23:57:32;;;;;;;4.05;0.90;;;;;;;18.99;49.80;101126.06;10096828;28;20058;-81
